Skip Navigation Links Skip Navigation Links

Current Weather

San Francisco International, San Francisco

For information only: do not use for flight planning or navigation.
Latest weather
Observation time Saturday, October 21, 2017 11:56 AM PDT
Local time Saturday, October 21, 2017 12:32 PM PDT
Flight conditions Visual Meteorological Conditions
Winds
Wind direction North-Northeast (30°)
Wind speed 5 mph
Visibility 10 mi.
Sky condition
Ceiling unlimited
Cloud layer few clouds 20,000 ft.
Temperature 60°F
Dewpoint 47°F
Altimeter 30.27 in.Hg
Derived measurements
Relative humidity 62%
Density altitude -156 ft.
Sea-level pressure 30.27 in.Hg
Remarks
Automated weather observing station with precipitation discriminator.
METAR KSFO 211856Z 03004KT 10SM FEW200 16/08 A3027 RMK AO2 SLP249 T01560083

Settings

Location code

InnerDrive.Weather 4.0.6144.1 Release CLR 4.0.30319.36366
Copyright ©2015 Inner Drive Technology. All rights reserved. Portions Copyright ©1986-2015 David Braverman.

Find weather

Site navigation


Skip Navigation Links

Place info

Page info

PayPal - The safer, easier way to pay online!

Return home.

Copyright ©2017 Inner Drive Technology. Purveyors of fine, hand-crafted computer software. Page printed 2017-10-21T19:32:11 UTC.